Time;durP1;ratioP1;P1;durP2;ratioP2;P2;SDS_P1;SDS_P2;PMS_P1;PMS_P2;Temp;Humidity;BMP_temperature;BMP_pressure;BME280_temperature;BME280_humidity;BME280_pressure;Samples;Min_cycle;Max_cycle;Signal;HPM_P1;HPM_P2
2022/04/30 00:02:22;;;;;;;8.60;7.10;;;;;;;10.42;59.74;101954.44;4985058;28;20439;-70
2022/04/30 00:04:48;;;;;;;8.05;7.35;;;;;;;10.44;59.58;101953.38;4988099;28;20029;-70
2022/04/30 00:07:17;;;;;;;11.48;7.03;;;;;;;10.45;59.21;101954.25;4963317;28;20059;-70
2022/04/30 00:09:42;;;;;;;9.93;7.40;;;;;;;10.42;59.48;101951.78;4983055;28;20125;-70
2022/04/30 00:12:09;;;;;;;8.02;7.18;;;;;;;10.43;59.55;101948.22;5010421;28;20596;-70
2022/04/30 00:14:35;;;;;;;7.25;6.55;;;;;;;10.41;59.49;101953.59;4978161;28;20022;-70
2022/04/30 00:17:00;;;;;;;7.95;7.15;;;;;;;10.36;59.30;101949.59;4964331;28;20025;-70
2022/04/30 00:19:27;;;;;;;8.52;7.68;;;;;;;10.23;59.59;101947.75;5002401;28;20021;-69
2022/04/30 00:21:52;;;;;;;8.13;7.43;;;;;;;10.25;60.12;101950.28;4976897;28;20013;-70
2022/04/30 00:24:17;;;;;;;7.88;7.20;;;;;;;10.35;59.19;101948.75;4961397;28;20033;-70
2022/04/30 00:26:43;;;;;;;8.35;7.60;;;;;;;10.29;59.50;101950.00;4997386;28;20075;-70
2022/04/30 00:29:09;;;;;;;8.90;7.97;;;;;;;10.36;59.82;101945.13;4978279;28;20014;-70
2022/04/30 00:31:35;;;;;;;7.60;7.00;;;;;;;10.36;59.45;101949.59;5016875;28;20101;-69
2022/04/30 00:34:01;;;;;;;8.02;7.32;;;;;;;10.13;60.50;101938.75;4954702;28;20249;-69
2022/04/30 00:36:26;;;;;;;8.13;7.25;;;;;;;10.17;60.31;101945.53;4946201;28;20015;-69
2022/04/30 00:38:51;;;;;;;9.88;7.38;;;;;;;10.14;60.81;101940.44;4984275;28;20066;-70
2022/04/30 00:41:17;;;;;;;7.95;7.25;;;;;;;10.15;60.59;101942.13;4983369;28;20010;-69
2022/04/30 00:43:46;;;;;;;8.00;7.38;;;;;;;10.15;60.68;101942.13;4981931;28;20762;-69
2022/04/30 00:46:15;;;;;;;8.75;7.85;;;;;;;10.04;61.07;101945.53;4986786;28;20021;-70
2022/04/30 00:48:41;;;;;;;8.52;7.35;;;;;;;9.95;61.12;101943.47;4968006;28;20014;-70
2022/04/30 00:51:14;;;;;;;9.13;7.03;;;;;;;9.96;61.07;101937.25;4984948;28;20060;-69
2022/04/30 00:53:41;;;;;;;8.18;7.53;;;;;;;10.01;61.35;101940.44;5001078;28;20986;-69
2022/04/30 00:56:12;;;;;;;9.35;7.65;;;;;;;10.05;61.25;101933.13;4986088;28;20027;-69
2022/04/30 00:58:38;;;;;;;13.93;7.93;;;;;;;10.03;61.41;101933.22;4984832;28;20025;-69
2022/04/30 01:01:04;;;;;;;7.70;7.00;;;;;;;10.00;61.50;101935.22;4984546;28;20112;-69
2022/04/30 01:03:29;;;;;;;8.15;7.28;;;;;;;10.00;61.50;101933.44;5000374;28;20442;-68
2022/04/30 01:05:58;;;;;;;7.95;7.25;;;;;;;9.84;61.57;101938.06;4998664;28;20765;-69
2022/04/30 01:08:24;;;;;;;8.00;7.22;;;;;;;9.73;62.37;101933.47;4984692;28;20120;-68
2022/04/30 01:10:49;;;;;;;8.40;7.38;;;;;;;9.76;62.58;101938.59;5000152;28;20922;-70
2022/04/30 01:13:14;;;;;;;11.77;7.47;;;;;;;9.67;62.88;101936.53;5003094;28;20802;-69
2022/04/30 01:15:40;;;;;;;8.05;7.25;;;;;;;9.66;63.15;101937.47;4983876;28;20252;-69
2022/04/30 01:18:10;;;;;;;8.05;7.35;;;;;;;9.70;62.59;101925.75;4971481;28;20094;-70
2022/04/30 01:20:36;;;;;;;9.23;7.70;;;;;;;9.61;62.69;101921.94;4983606;28;20017;-69
2022/04/30 01:23:02;;;;;;;9.70;7.68;;;;;;;9.63;62.95;101915.59;4982145;28;20052;-69
2022/04/30 01:25:30;;;;;;;9.35;7.13;;;;;;;9.55;63.33;101919.72;4987744;27;20047;-69
2022/04/30 01:27:56;;;;;;;12.05;7.72;;;;;;;9.58;63.69;101922.97;4954890;28;20048;-68
2022/04/30 01:30:22;;;;;;;9.02;7.57;;;;;;;9.54;63.12;101921.50;4978103;27;20009;-69
2022/04/30 01:38:16;;;;;;;8.98;8.10;;;;;;;9.51;63.56;101915.56;5018428;28;20044;-70
2022/04/30 01:40:41;;;;;;;11.68;8.30;;;;;;;9.48;63.09;101916.63;5001985;28;20021;-69
2022/04/30 01:43:07;;;;;;;9.38;8.52;;;;;;;9.40;63.37;101918.91;4984973;28;20025;-69
2022/04/30 01:45:33;;;;;;;10.57;8.57;;;;;;;9.38;63.75;101915.53;4984954;28;20022;-70
2022/04/30 01:47:59;;;;;;;11.23;8.70;;;;;;;9.37;64.33;101913.84;5001185;28;20009;-70
2022/04/30 01:50:24;;;;;;;9.32;8.43;;;;;;;9.26;64.44;101907.47;5002500;28;20009;-69
2022/04/30 01:52:50;;;;;;;9.63;8.40;;;;;;;9.34;64.68;101906.13;5003403;28;20549;-69
2022/04/30 01:55:15;;;;;;;10.40;8.27;;;;;;;9.27;64.97;101911.78;4983420;28;20128;-69
2022/04/30 01:57:41;;;;;;;9.65;8.70;;;;;;;9.17;64.50;101910.69;4984201;28;20443;-69
2022/04/30 02:00:08;;;;;;;9.15;7.90;;;;;;;9.18;64.94;101901.81;4986337;28;20033;-70
2022/04/30 02:02:35;;;;;;;9.20;8.25;;;;;;;9.11;64.72;101913.72;4984453;28;20120;-70
2022/04/30 02:05:01;;;;;;;9.80;8.27;;;;;;;9.05;65.10;101916.75;4985437;28;20043;-69
2022/04/30 02:07:27;;;;;;;9.02;8.20;;;;;;;8.97;65.17;101909.31;4989313;28;20017;-70
2022/04/30 02:09:52;;;;;;;12.27;8.40;;;;;;;8.93;65.57;101908.66;4994626;28;20027;-69
2022/04/30 02:12:18;;;;;;;10.15;8.30;;;;;;;8.96;65.36;101898.88;5003308;28;20509;-69
2022/04/30 02:14:46;;;;;;;9.98;8.05;;;;;;;8.90;65.72;101908.03;4983503;28;20032;-69
2022/04/30 02:17:11;;;;;;;8.57;7.78;;;;;;;8.87;65.78;101905.56;4987259;28;20025;-69
2022/04/30 02:22:21;;;;;;;9.13;7.97;;;;;;;8.84;65.45;101906.63;4988481;28;20145;-69
2022/04/30 02:24:47;;;;;;;10.40;8.25;;;;;;;8.81;65.79;101904.16;5001166;28;20390;-70
2022/04/30 02:27:12;;;;;;;11.95;8.10;;;;;;;8.71;65.96;101903.03;4983410;28;20014;-69
2022/04/30 02:29:38;;;;;;;8.25;7.47;;;;;;;8.58;66.21;101892.41;4985777;28;20021;-68
2022/04/30 02:32:04;;;;;;;9.25;7.85;;;;;;;8.64;66.20;101896.47;5001610;28;20577;-68
2022/04/30 02:34:29;;;;;;;10.07;7.90;;;;;;;8.43;66.53;101896.78;4999700;28;20090;-69
2022/04/30 02:36:54;;;;;;;8.88;7.43;;;;;;;8.50;66.60;101900.81;4995323;28;20508;-69
2022/04/30 02:39:20;;;;;;;11.40;7.50;;;;;;;8.38;67.50;101893.63;4981708;28;20002;-69
2022/04/30 02:41:45;;;;;;;8.95;8.05;;;;;;;8.34;67.32;101892.09;4946400;28;20010;-68
2022/04/30 02:44:10;;;;;;;9.35;7.80;;;;;;;8.24;67.45;101892.66;4990532;28;20039;-68
2022/04/30 02:46:36;;;;;;;8.38;7.57;;;;;;;8.30;67.24;101898.50;4999884;28;20014;-68
2022/04/30 02:49:01;;;;;;;9.77;7.47;;;;;;;8.22;67.24;101894.56;5020123;28;19998;-70
2022/04/30 02:51:27;;;;;;;8.60;7.70;;;;;;;8.27;67.37;101890.78;5017200;28;20834;-68
2022/04/30 02:53:54;;;;;;;8.07;7.35;;;;;;;8.23;67.53;101890.97;4983122;28;20033;-69
2022/04/30 02:56:19;;;;;;;8.70;7.50;;;;;;;8.25;67.75;101886.44;4999924;28;20021;-68
2022/04/30 03:01:29;;;;;;;9.00;7.30;;;;;;;8.13;67.93;101896.88;5001623;28;20785;-68
2022/04/30 03:03:54;;;;;;;7.85;7.20;;;;;;;8.08;67.98;101891.91;4991604;28;20029;-69
2022/04/30 03:06:20;;;;;;;8.90;8.00;;;;;;;8.14;67.60;101893.31;4983992;28;20006;-69
2022/04/30 03:08:48;;;;;;;10.15;7.30;;;;;;;7.99;67.72;101888.00;4967401;28;20226;-69
2022/04/30 03:11:13;;;;;;;9.20;7.47;;;;;;;8.01;68.20;101890.53;4966789;28;20005;-69
2022/04/30 03:13:39;;;;;;;8.75;7.28;;;;;;;8.03;67.82;101896.59;4965648;28;20641;-69
2022/04/30 03:21:53;;;;;;;8.52;7.80;;;;;;;7.82;68.63;101894.28;4868706;28;21053;-69
2022/04/30 03:24:19;;;;;;;9.63;7.38;;;;;;;7.74;68.35;101892.09;4924976;28;20029;-69
2022/04/30 03:26:45;;;;;;;7.80;6.97;;;;;;;7.67;69.04;101884.63;4998736;28;20030;-69
2022/04/30 03:29:10;;;;;;;10.55;7.65;;;;;;;7.62;69.43;101889.34;5001609;27;20021;-68
2022/04/30 03:31:39;;;;;;;8.95;8.05;;;;;;;7.68;69.44;101888.97;5018748;27;20259;-68
2022/04/30 03:34:09;;;;;;;9.65;7.60;;;;;;;7.62;69.35;101894.63;4992984;28;20014;-69
2022/04/30 03:36:35;;;;;;;8.98;7.32;;;;;;;7.51;69.62;101889.97;5001082;28;20022;-69
2022/04/30 03:39:00;;;;;;;12.38;7.75;;;;;;;7.51;70.04;101887.31;4984244;28;20021;-68
2022/04/30 03:41:25;;;;;;;8.55;7.70;;;;;;;7.45;70.01;101895.59;4987398;28;20093;-68
2022/04/30 03:43:51;;;;;;;9.60;7.75;;;;;;;7.51;69.59;101892.59;5020681;28;20109;-68
2022/04/30 03:46:17;;;;;;;10.63;8.20;;;;;;;7.54;69.60;101890.66;4981378;28;20013;-68
2022/04/30 03:48:42;;;;;;;9.45;7.60;;;;;;;7.61;69.74;101900.81;4985394;28;20014;-69
2022/04/30 03:51:08;;;;;;;8.35;7.57;;;;;;;7.42;70.01;101898.38;5001009;28;20014;-68
2022/04/30 03:53:34;;;;;;;9.88;8.40;;;;;;;7.44;70.43;101889.47;5000201;28;20008;-68
2022/04/30 03:56:00;;;;;;;8.88;7.97;;;;;;;7.37;70.39;101901.28;4999690;28;20413;-69
2022/04/30 03:58:29;;;;;;;11.32;8.45;;;;;;;7.43;69.98;101897.44;5007489;28;20066;-68
2022/04/30 04:00:54;;;;;;;8.98;7.72;;;;;;;7.45;70.37;101903.50;4981739;28;20925;-68
2022/04/30 04:03:23;;;;;;;10.60;7.43;;;;;;;7.46;70.54;101890.22;4972255;28;20132;-69
2022/04/30 04:05:49;;;;;;;9.20;8.10;;;;;;;7.48;70.36;101898.88;4984939;28;20837;-68
2022/04/30 04:08:15;;;;;;;9.00;8.10;;;;;;;7.47;70.31;101897.19;4999336;28;20322;-68
2022/04/30 04:10:41;;;;;;;9.00;8.10;;;;;;;7.65;70.48;101903.16;4982972;28;20025;-69
2022/04/30 04:18:34;;;;;;;10.10;9.10;;;;;;;7.62;70.06;101905.16;4970853;28;20829;-68
2022/04/30 04:21:00;;;;;;;9.93;8.70;;;;;;;7.64;70.09;101903.25;4985329;28;20019;-69
2022/04/30 04:23:25;;;;;;;9.50;8.60;;;;;;;7.61;69.88;101911.34;4982355;28;20515;-69
2022/04/30 04:26:00;;;;;;;9.50;8.52;;;;;;;7.66;69.79;101918.06;5000088;28;20757;-68
2022/04/30 04:28:27;;;;;;;9.70;8.70;;;;;;;7.62;69.84;101911.25;4984689;28;20183;-69
2022/04/30 04:30:52;;;;;;;9.82;8.30;;;;;;;7.64;69.91;101912.03;4981275;28;20042;-68
2022/04/30 04:33:17;;;;;;;9.02;8.13;;;;;;;7.60;69.93;101914.91;4982592;28;20571;-69
2022/04/30 04:35:43;;;;;;;9.38;8.20;;;;;;;7.69;69.96;101917.03;4970640;28;20370;-68
2022/04/30 04:38:08;;;;;;;12.02;8.63;;;;;;;7.72;69.67;101914.22;4997382;28;20102;-68
2022/04/30 04:40:35;;;;;;;9.93;8.35;;;;;;;7.75;69.39;101911.41;4984305;28;20016;-69
2022/04/30 04:43:00;;;;;;;12.93;8.63;;;;;;;7.78;69.37;101905.09;4999316;28;20029;-69
2022/04/30 04:45:27;;;;;;;9.95;8.93;;;;;;;7.67;69.52;101916.25;4997831;28;20137;-69
2022/04/30 04:47:52;;;;;;;9.60;8.60;;;;;;;7.74;70.21;101914.97;4977894;28;20761;-71
2022/04/30 04:50:18;;;;;;;10.40;8.20;;;;;;;7.76;69.18;101923.63;4945427;28;20021;-67
2022/04/30 04:52:44;;;;;;;9.55;8.52;;;;;;;7.79;69.29;101918.19;4977254;28;20022;-69
2022/04/30 04:55:10;;;;;;;10.73;7.93;;;;;;;7.84;69.43;101918.78;4982315;28;20206;-69
2022/04/30 04:57:36;;;;;;;11.50;8.60;;;;;;;7.78;69.87;101915.63;4961631;28;20970;-70
2022/04/30 05:00:02;;;;;;;10.80;7.88;;;;;;;7.81;69.45;101918.97;4978925;28;20036;-69
2022/04/30 05:02:28;;;;;;;9.90;8.82;;;;;;;7.96;69.22;101932.16;4961867;28;20472;-69
2022/04/30 05:04:53;;;;;;;9.35;8.32;;;;;;;7.94;68.99;101931.41;4975433;28;20018;-69
2022/04/30 05:07:19;;;;;;;14.52;8.45;;;;;;;8.01;68.43;101935.34;4995043;28;20006;-69
2022/04/30 05:09:44;;;;;;;11.27;8.25;;;;;;;8.00;68.45;101933.69;4960675;28;20026;-69
2022/04/30 05:12:10;;;;;;;10.30;7.85;;;;;;;7.99;69.20;101930.19;4963387;28;20018;-69
2022/04/30 05:14:35;;;;;;;8.93;8.10;;;;;;;8.08;68.04;101936.72;4986404;28;20013;-69
2022/04/30 05:17:01;;;;;;;8.85;7.95;;;;;;;8.13;68.46;101944.34;4972317;28;20022;-68
2022/04/30 05:19:27;;;;;;;8.23;7.40;;;;;;;8.18;67.93;101950.19;4955588;28;20298;-69
2022/04/30 05:21:52;;;;;;;8.80;7.90;;;;;;;8.23;66.92;101948.13;4957216;28;20513;-69
2022/04/30 05:24:17;;;;;;;8.70;7.40;;;;;;;8.28;67.19;101956.63;4959271;28;20038;-69
2022/04/30 05:26:43;;;;;;;9.32;7.85;;;;;;;8.32;67.43;101949.34;4972926;28;20032;-69
2022/04/30 05:29:08;;;;;;;10.23;7.20;;;;;;;8.21;67.26;101950.84;5001798;28;20473;-69
2022/04/30 05:31:34;;;;;;;8.52;7.03;;;;;;;8.24;67.16;101957.75;4986935;28;20385;-69
2022/04/30 05:33:59;;;;;;;7.60;6.88;;;;;;;8.28;67.43;101961.91;4983950;28;20013;-69
2022/04/30 05:36:24;;;;;;;8.73;6.85;;;;;;;8.31;66.86;101945.88;4983441;28;20018;-69
2022/04/30 05:38:51;;;;;;;7.07;6.38;;;;;;;8.38;66.59;101949.00;4983741;28;20452;-69
2022/04/30 05:41:16;;;;;;;7.60;6.43;;;;;;;8.46;66.39;101957.34;5006400;28;20094;-68
2022/04/30 05:43:42;;;;;;;9.75;6.75;;;;;;;8.43;66.78;101960.09;4997386;28;20033;-69
2022/04/30 05:46:07;;;;;;;6.43;5.93;;;;;;;8.52;65.69;101964.88;5020969;28;20040;-69
2022/04/30 05:48:33;;;;;;;7.15;6.00;;;;;;;8.61;65.86;101950.25;5000151;28;20037;-69
2022/04/30 05:50:58;;;;;;;7.20;5.90;;;;;;;8.56;65.23;101961.09;4975528;28;20782;-69
2022/04/30 05:53:24;;;;;;;6.22;5.72;;;;;;;8.65;65.55;101954.41;4959210;28;20016;-69
2022/04/30 05:55:49;;;;;;;7.03;6.32;;;;;;;8.69;64.98;101958.56;4984275;27;20013;-69
2022/04/30 05:58:14;;;;;;;6.47;5.88;;;;;;;8.78;65.57;101949.22;4997042;28;20012;-69
2022/04/30 06:00:40;;;;;;;6.30;5.60;;;;;;;8.87;64.69;101958.34;4970282;28;20026;-69
2022/04/30 06:03:05;;;;;;;5.50;5.10;;;;;;;8.86;64.37;101960.16;4990321;28;20045;-69
2022/04/30 06:05:31;;;;;;;5.95;5.45;;;;;;;8.86;64.87;101956.69;4994108;28;21026;-70
2022/04/30 06:07:56;;;;;;;5.60;5.03;;;;;;;8.98;64.66;101962.97;4979053;28;20448;-69
2022/04/30 06:10:22;;;;;;;7.15;5.35;;;;;;;9.11;63.54;101962.09;4947974;28;20176;-68
2022/04/30 06:12:47;;;;;;;6.43;5.22;;;;;;;9.13;63.66;101975.19;4962553;28;20113;-70
2022/04/30 06:15:13;;;;;;;9.30;6.03;;;;;;;9.15;64.38;101961.91;4976700;28;20026;-69
2022/04/30 06:17:38;;;;;;;6.88;6.30;;;;;;;9.23;64.69;101968.38;4963930;28;20022;-68
2022/04/30 06:20:04;;;;;;;9.40;6.53;;;;;;;9.35;64.71;101960.63;4947127;28;20006;-69
2022/04/30 06:22:30;;;;;;;8.75;7.00;;;;;;;9.33;65.32;101971.28;4980177;28;20403;-69
2022/04/30 06:24:56;;;;;;;8.40;6.65;;;;;;;9.41;64.96;101963.72;4946686;28;20747;-69
2022/04/30 06:27:21;;;;;;;8.90;6.07;;;;;;;9.47;63.93;101970.41;4999073;27;20530;-69
2022/04/30 06:29:49;;;;;;;8.07;5.75;;;;;;;9.47;63.49;101973.03;5003585;27;21010;-70
2022/04/30 06:32:14;;;;;;;8.43;5.40;;;;;;;9.47;63.22;101975.69;4978874;28;20006;-69
2022/04/30 06:34:40;;;;;;;7.80;5.40;;;;;;;9.54;64.35;101971.69;4973683;28;20030;-69
2022/04/30 06:37:05;;;;;;;5.53;5.03;;;;;;;9.65;63.37;101970.16;4978356;28;20935;-68
2022/04/30 06:39:31;;;;;;;6.78;5.22;;;;;;;9.77;63.15;101979.91;4979264;28;20024;-68
2022/04/30 06:41:56;;;;;;;5.28;4.40;;;;;;;9.82;60.42;101988.41;4977142;28;20006;-70
2022/04/30 06:44:22;;;;;;;4.72;4.13;;;;;;;9.80;60.62;101971.81;4947918;28;20048;-70
2022/04/30 06:46:47;;;;;;;5.68;4.35;;;;;;;9.72;61.88;101977.59;4968738;28;20032;-69
2022/04/30 06:49:13;;;;;;;6.82;4.68;;;;;;;9.76;61.80;101975.59;4969624;28;20108;-70
2022/04/30 06:51:38;;;;;;;6.32;4.30;;;;;;;9.93;60.68;101971.84;4993895;28;20509;-69
2022/04/30 06:59:37;;;;;;;4.63;4.22;;;;;;;10.07;60.47;101976.22;4968102;28;20469;-69
2022/04/30 07:02:06;;;;;;;4.35;4.00;;;;;;;9.96;60.96;101972.47;4970958;28;20010;-68
2022/04/30 07:04:32;;;;;;;5.15;4.68;;;;;;;9.97;60.67;101974.16;4973554;28;20038;-70
2022/04/30 07:06:57;;;;;;;5.30;3.80;;;;;;;9.92;61.06;101973.59;4949915;28;20014;-68
2022/04/30 07:09:23;;;;;;;5.68;3.78;;;;;;;10.00;60.93;101969.59;4962441;28;20913;-68
2022/04/30 07:11:48;;;;;;;5.85;4.40;;;;;;;10.02;60.38;101973.00;4941264;28;20535;-68
2022/04/30 07:14:14;;;;;;;4.05;3.70;;;;;;;10.01;60.23;101973.94;4966439;28;20086;-68
2022/04/30 07:16:39;;;;;;;4.80;4.30;;;;;;;9.94;60.99;101976.16;4971492;28;20036;-69
2022/04/30 07:19:05;;;;;;;7.60;4.80;;;;;;;10.02;60.73;101973.00;4973181;28;20034;-70
2022/04/30 07:21:33;;;;;;;4.60;4.20;;;;;;;10.12;59.77;101979.38;4952598;28;20056;-69
2022/04/30 07:23:59;;;;;;;6.53;4.18;;;;;;;10.10;59.64;101984.75;4966399;28;20428;-69
2022/04/30 07:26:24;;;;;;;5.47;4.20;;;;;;;10.03;59.84;101986.13;4961165;28;20026;-70
2022/04/30 07:28:51;;;;;;;3.75;3.45;;;;;;;10.03;60.45;101980.00;4986148;28;20018;-69
2022/04/30 07:31:16;;;;;;;4.50;3.72;;;;;;;10.14;59.06;101982.78;4951936;28;20482;-68
2022/04/30 07:33:42;;;;;;;4.13;3.50;;;;;;;10.21;59.72;101983.19;4966581;28;20553;-71
2022/04/30 07:36:09;;;;;;;4.22;3.90;;;;;;;10.45;60.28;101976.25;4993452;28;20014;-69
2022/04/30 07:38:34;;;;;;;4.88;3.42;;;;;;;10.90;58.79;101981.13;4968748;28;20362;-71
2022/04/30 07:41:00;;;;;;;4.45;3.72;;;;;;;11.11;57.57;101977.88;4984355;28;20010;-71
2022/04/30 07:43:25;;;;;;;4.00;3.70;;;;;;;11.21;57.90;101973.63;4951335;28;20902;-70
2022/04/30 07:45:50;;;;;;;4.30;3.70;;;;;;;11.30;56.88;101972.94;4999894;28;20017;-70
2022/04/30 07:48:16;;;;;;;6.03;3.92;;;;;;;11.57;57.72;101976.34;5005302;28;20086;-71
2022/04/30 07:50:44;;;;;;;3.50;3.20;;;;;;;11.71;54.45;101970.03;4965782;28;20021;-69
2022/04/30 07:53:14;;;;;;;5.03;3.45;;;;;;;11.86;54.84;101968.91;4979873;28;20013;-72
2022/04/30 07:55:40;;;;;;;4.25;3.35;;;;;;;11.92;54.35;101972.88;4954493;28;20020;-72
2022/04/30 07:58:06;;;;;;;3.53;3.30;;;;;;;12.10;53.95;101971.53;4974868;28;20021;-72
2022/04/30 08:00:31;;;;;;;6.90;3.58;;;;;;;12.24;54.31;101967.81;4954032;28;20014;-71
2022/04/30 08:02:57;;;;;;;3.60;3.30;;;;;;;12.14;52.77;101964.16;4970015;28;20026;-71
2022/04/30 08:05:23;;;;;;;4.35;3.20;;;;;;;12.18;52.64;101957.66;4977072;28;20891;-71
2022/04/30 08:07:48;;;;;;;5.22;3.67;;;;;;;12.35;54.19;101964.31;4966448;28;20117;-72
2022/04/30 08:10:14;;;;;;;5.57;3.60;;;;;;;12.31;53.32;101962.88;4980087;28;20019;-71
2022/04/30 08:12:39;;;;;;;6.30;4.03;;;;;;;12.36;52.88;101966.84;4992282;28;20026;-71
2022/04/30 08:15:05;;;;;;;4.18;3.78;;;;;;;12.19;52.67;101969.97;4994779;28;20017;-71
2022/04/30 08:17:30;;;;;;;6.32;4.05;;;;;;;12.04;52.76;101969.31;4963808;28;20140;-71
2022/04/30 08:19:56;;;;;;;6.80;4.10;;;;;;;11.87;53.62;101965.25;4954582;28;20216;-72
2022/04/30 08:22:21;;;;;;;3.75;3.35;;;;;;;11.76;53.24;101967.88;4997859;28;20041;-73
2022/04/30 08:24:47;;;;;;;4.72;3.80;;;;;;;11.79;53.50;101975.63;4970276;28;20026;-71
2022/04/30 08:27:12;;;;;;;4.82;4.20;;;;;;;11.87;53.17;101967.91;4974686;28;20789;-71
2022/04/30 08:29:38;;;;;;;4.50;4.20;;;;;;;11.62;52.94;101972.41;4968416;28;20006;-71
2022/04/30 08:32:04;;;;;;;4.13;3.72;;;;;;;11.69;53.28;101972.81;4972139;28;20029;-72
2022/04/30 08:34:30;;;;;;;4.13;3.83;;;;;;;11.97;54.50;101968.97;4965389;28;20121;-71
2022/04/30 08:36:55;;;;;;;6.07;4.63;;;;;;;12.22;54.22;101964.44;4999770;28;20052;-70
2022/04/30 08:39:21;;;;;;;7.57;4.40;;;;;;;12.43;51.28;101963.75;4953507;28;20050;-70
2022/04/30 08:41:46;;;;;;;4.03;3.70;;;;;;;12.49;49.69;101960.59;4979238;28;20005;-71
2022/04/30 08:44:15;;;;;;;4.53;4.10;;;;;;;12.82;51.71;101973.06;4951420;28;20025;-71
2022/04/30 08:46:41;;;;;;;4.13;3.75;;;;;;;12.66;51.04;101965.47;4975902;28;20087;-70
2022/04/30 08:49:07;;;;;;;4.20;3.90;;;;;;;12.75;50.17;101955.91;4975417;28;20018;-70
2022/04/30 08:51:32;;;;;;;4.60;4.20;;;;;;;13.01;49.60;101967.13;4984745;28;20024;-70
2022/04/30 08:53:58;;;;;;;5.10;4.20;;;;;;;13.37;51.05;101967.81;4968690;28;20027;-69
2022/04/30 08:56:24;;;;;;;4.20;3.80;;;;;;;13.38;49.78;101969.50;4967542;28;20938;-70
2022/04/30 08:58:50;;;;;;;4.45;4.10;;;;;;;13.69;49.65;101955.50;4966659;28;20033;-71
2022/04/30 09:01:16;;;;;;;4.50;4.10;;;;;;;13.67;48.19;101957.44;4982514;28;20017;-70
2022/04/30 09:03:41;;;;;;;4.22;3.83;;;;;;;13.67;48.54;101952.97;4980389;28;20045;-72
2022/04/30 09:06:06;;;;;;;6.70;3.85;;;;;;;13.88;48.29;101955.63;4985165;28;20957;-70
2022/04/30 09:08:32;;;;;;;3.95;3.58;;;;;;;14.31;48.64;101945.00;4959351;28;20491;-71
2022/04/30 09:11:07;;;;;;;4.80;3.25;;;;;;;14.30;47.51;101953.94;4997894;28;20498;-71
2022/04/30 09:13:49;;;;;;;3.85;3.15;;;;;;;13.73;45.71;101951.59;4983022;28;20048;-70
2022/04/30 09:16:21;;;;;;;3.72;2.78;;;;;;;13.66;46.69;101945.09;4996103;28;20028;-71
2022/04/30 09:18:48;;;;;;;3.10;2.80;;;;;;;13.73;46.20;101948.94;4950309;28;20077;-70
2022/04/30 09:21:14;;;;;;;3.97;3.10;;;;;;;13.78;46.02;101945.91;4965535;28;20037;-71
2022/04/30 09:23:39;;;;;;;3.30;3.08;;;;;;;14.19;44.53;101942.41;4980598;28;20808;-71
2022/04/30 09:26:05;;;;;;;9.93;3.63;;;;;;;14.53;46.60;101938.66;4969218;28;20156;-70
2022/04/30 09:28:33;;;;;;;3.58;3.15;;;;;;;14.79;45.21;101933.72;4969942;28;20052;-70
2022/04/30 09:31:09;;;;;;;3.30;3.10;;;;;;;14.59;44.24;101933.66;5002793;28;20719;-72
2022/04/30 09:33:35;;;;;;;3.67;3.25;;;;;;;15.16;45.21;101933.13;4951336;28;20309;-71
2022/04/30 09:38:47;;;;;;;4.07;3.78;;;;;;;15.84;42.71;101935.00;4946758;28;20481;-71
2022/04/30 09:41:12;;;;;;;4.90;3.67;;;;;;;15.70;42.14;101928.25;4967385;28;20428;-70
2022/04/30 09:43:37;;;;;;;4.57;3.35;;;;;;;15.67;43.75;101933.03;4977608;28;20017;-71
2022/04/30 09:46:06;;;;;;;3.00;2.80;;;;;;;16.35;42.51;101924.91;4975792;28;20422;-72
2022/04/30 09:54:03;;;;;;;4.32;2.72;;;;;;;17.50;39.32;101934.28;4980436;28;20195;-72
2022/04/30 09:56:36;;;;;;;2.95;2.75;;;;;;;17.85;39.31;101926.38;4946726;28;20075;-73
2022/04/30 09:59:05;;;;;;;4.10;2.97;;;;;;;17.73;36.83;101912.41;4961156;28;20014;-72
2022/04/30 10:01:32;;;;;;;2.67;2.58;;;;;;;18.31;37.34;101918.16;4978610;28;20010;-73
2022/04/30 10:03:58;;;;;;;2.75;2.55;;;;;;;18.64;36.15;101911.13;4950045;28;20147;-72
2022/04/30 10:06:23;;;;;;;3.15;2.95;;;;;;;18.77;36.52;101908.00;4969403;28;20061;-72
2022/04/30 10:08:48;;;;;;;2.67;2.47;;;;;;;19.30;35.56;101899.75;4982752;28;20022;-70
2022/04/30 10:11:21;;;;;;;2.50;2.25;;;;;;;19.02;35.34;101906.25;4964745;28;20026;-71
2022/04/30 10:13:49;;;;;;;3.47;3.00;;;;;;;18.00;35.57;101903.41;4970759;28;20014;-71
2022/04/30 10:16:25;;;;;;;3.13;2.92;;;;;;;18.21;34.68;101910.25;4987051;28;20014;-70
2022/04/30 10:19:13;;;;;;;2.50;2.30;;;;;;;18.58;37.86;101894.84;4955990;28;20121;-70
2022/04/30 10:21:38;;;;;;;2.40;2.20;;;;;;;18.15;36.42;101898.31;4968027;28;20033;-71
2022/04/30 10:24:05;;;;;;;3.00;2.80;;;;;;;18.70;35.89;101898.91;4968478;28;21028;-70
2022/04/30 10:26:30;;;;;;;3.10;2.90;;;;;;;19.02;35.78;101900.03;4992056;28;20255;-70
2022/04/30 10:29:10;;;;;;;2.72;2.53;;;;;;;19.12;36.64;101898.06;4992526;28;20333;-71
2022/04/30 10:31:45;;;;;;;3.47;3.17;;;;;;;19.21;33.81;101897.06;4959807;28;20740;-71
2022/04/30 10:34:11;;;;;;;3.03;2.83;;;;;;;18.73;35.13;101895.91;4955279;28;20509;-72
2022/04/30 10:36:37;;;;;;;4.05;2.60;;;;;;;19.11;32.87;101896.38;4953280;28;20019;-71
2022/04/30 10:39:06;;;;;;;2.40;2.30;;;;;;;19.05;34.54;101889.81;4992126;28;20021;-72
2022/04/30 10:41:45;;;;;;;4.18;2.42;;;;;;;18.75;35.33;101891.22;4982864;28;20017;-71
2022/04/30 10:44:12;;;;;;;2.60;2.40;;;;;;;18.47;35.66;101882.56;4987868;28;20029;-71
2022/04/30 10:46:39;;;;;;;2.40;2.30;;;;;;;18.53;36.45;101876.56;4983262;28;20263;-71
2022/04/30 10:49:06;;;;;;;3.47;2.28;;;;;;;18.32;34.87;101874.31;4985437;28;20240;-72
2022/04/30 10:51:39;;;;;;;2.85;2.42;;;;;;;18.95;35.01;101872.19;4988098;28;20093;-72
2022/04/30 10:54:13;;;;;;;2.65;2.45;;;;;;;18.81;34.28;101873.63;5034214;28;20013;-72
2022/04/30 10:56:39;;;;;;;4.15;2.53;;;;;;;19.22;34.18;101871.91;5008669;28;20025;-72
2022/04/30 10:59:04;;;;;;;3.60;2.72;;;;;;;19.99;34.62;101877.94;5010868;28;20886;-71
2022/04/30 11:01:30;;;;;;;2.83;2.63;;;;;;;19.86;32.73;101868.53;4982622;28;20009;-71
2022/04/30 11:03:55;;;;;;;2.70;2.50;;;;;;;19.41;34.68;101859.16;5004883;28;20431;-72
2022/04/30 11:06:22;;;;;;;2.88;2.67;;;;;;;19.62;34.44;101855.13;4987482;28;20032;-71
2022/04/30 11:09:07;;;;;;;3.05;2.85;;;;;;;19.80;33.67;101863.88;4968623;28;20033;-72
2022/04/30 11:11:33;;;;;;;5.30;2.58;;;;;;;18.69;34.45;101868.56;4981241;28;20918;-72
2022/04/30 11:14:08;;;;;;;2.70;2.50;;;;;;;18.75;34.35;101853.66;5003519;28;20029;-72
2022/04/30 11:16:38;;;;;;;2.65;2.35;;;;;;;19.71;33.56;101851.41;4981943;28;20021;-72
2022/04/30 11:19:07;;;;;;;2.67;2.55;;;;;;;20.44;31.35;101849.53;4968454;28;20128;-72
2022/04/30 11:21:40;;;;;;;3.20;2.20;;;;;;;21.32;31.63;101858.28;4992884;27;20983;-71
2022/04/30 11:24:06;;;;;;;3.38;2.70;;;;;;;21.96;31.07;101847.06;5013149;28;20341;-72
2022/04/30 11:26:39;;;;;;;5.10;2.17;;;;;;;21.41;29.64;101845.59;5001383;28;20464;-72
2022/04/30 11:29:12;;;;;;;2.78;2.33;;;;;;;22.43;30.27;101855.81;5005062;28;20034;-72
2022/04/30 11:31:38;;;;;;;5.57;3.20;;;;;;;22.70;29.63;101839.13;4997352;28;20242;-72
2022/04/30 11:34:10;;;;;;;2.83;2.63;;;;;;;22.76;30.06;101841.03;5013619;28;20938;-71
2022/04/30 11:36:46;;;;;;;3.42;2.45;;;;;;;21.91;30.79;101836.03;4992395;28;20017;-72
2022/04/30 11:39:13;;;;;;;2.35;2.13;;;;;;;22.11;29.69;101839.00;4988396;28;20075;-71
2022/04/30 11:41:39;;;;;;;2.83;2.38;;;;;;;21.38;29.61;101841.41;4993544;28;20084;-73
2022/04/30 11:44:05;;;;;;;2.47;2.22;;;;;;;21.89;29.96;101827.28;5008075;28;20040;-72
2022/04/30 11:46:30;;;;;;;2.40;2.30;;;;;;;21.61;30.18;101835.16;5008966;28;20026;-72
2022/04/30 11:48:56;;;;;;;2.22;2.03;;;;;;;22.53;29.76;101827.72;5016408;28;20425;-72
2022/04/30 11:51:21;;;;;;;2.42;2.22;;;;;;;23.37;29.77;101820.91;5015518;28;20025;-72
2022/04/30 11:53:47;;;;;;;2.70;2.50;;;;;;;22.73;27.96;101822.53;4984657;28;20013;-72
2022/04/30 11:56:12;;;;;;;2.75;2.58;;;;;;;21.10;29.27;101825.81;4999348;28;20077;-71
2022/04/30 11:58:44;;;;;;;4.13;2.63;;;;;;;20.14;31.13;101829.69;5000270;28;20078;-71
2022/04/30 12:01:25;;;;;;;2.97;2.78;;;;;;;20.86;30.88;101828.69;4976474;28;20021;-71
2022/04/30 12:04:03;;;;;;;2.70;2.50;;;;;;;21.65;29.71;101824.88;4997358;28;20061;-72